Date,TemperatureHighF,TemperatureAvgF,TemperatureLowF,DewpointHighF,DewpointAvgF,DewpointLowF,HumidityHigh,HumidityAvg,HumidityLow,PressureMaxIn,PressureMinIn,WindSpeedMaxMPH,WindSpeedAvgMPH,GustSpeedMaxMPH,PrecipitationSumIn
2013-7-1,89.2,79.9,72.5,66.0,59.8,55.3,74,52,35,28.60,28.46,8,3,15,0.00
2013-7-2,75.0,75.0,75.0,65.0,65.0,65.0,71,71,71,28.60,28.60,0,0,1,0.00
2013-7-3,88.5,86.3,80.8,63.7,62.4,58.7,48,45,41,28.53,28.47,12,5,19,0.00
2013-7-4,89.1,82.1,75.7,65.3,58.2,54.6,51,45,37,28.51,28.43,10,4,20,0.00
2013-7-5,89.4,82.8,75.7,67.2,60.0,54.1,53,46,38,28.50,28.43,10,4,21,0.00
2013-7-6,86.4,82.0,76.8,66.0,64.3,61.4,69,56,48,28.48,28.42,14,5,24,0.00
2013-7-7,89.8,85.2,79.2,68.5,66.0,63.3,67,53,46,28.53,28.44,14,8,26,0.02
2013-7-8,92.5,84.8,78.8,64.0,62.5,59.6,57,48,37,28.57,28.50,9,6,21,0.00
2013-7-9,94.5,87.2,81.1,67.6,63.9,58.0,55,46,37,28.55,28.40,10,6,19,0.00
2013-7-10,93.6,85.0,78.8,68.6,66.0,63.3,65,54,39,28.43,28.30,13,5,21,0.00
2013-7-11,93.2,85.9,78.1,69.2,63.6,58.4,68,48,38,28.39,28.32,9,3,13,0.00
2013-7-12,92.5,84.5,77.7,70.9,66.9,62.2,68,56,42,28.47,28.39,10,2,17,0.00
2013-7-13,93.0,86.6,79.5,68.5,66.1,62.9,63,51,45,28.48,28.41,8,3,20,0.00
2013-7-14,94.8,85.6,79.7,71.5,64.1,60.9,76,50,35,28.48,28.41,10,4,17,0.00
2013-7-15,91.9,83.9,79.0,67.9,63.3,58.3,67,51,40,28.47,28.38,9,3,18,0.00
2013-7-16,89.6,84.5,79.7,64.9,61.4,59.0,52,46,40,28.49,28.41,6,3,17,0.00
2013-7-17,83.1,79.8,75.2,66.1,63.1,59.2,68,57,49,28.55,28.49,13,8,24,0.07
2013-7-18,86.4,80.3,75.2,63.5,60.5,57.8,65,52,38,28.57,28.52,14,8,28,0.27
2013-7-19,88.0,81.6,76.5,61.2,58.3,54.3,56,46,36,28.55,28.45,15,7,23,0.00
2013-7-20,91.9,84.2,75.6,63.4,59.9,54.2,56,45,32,28.46,28.36,13,5,21,0.00
2013-7-21,94.3,86.5,77.7,63.1,60.2,54.7,52,42,33,28.42,28.36,10,4,21,0.00
2013-7-22,86.4,80.7,77.4,68.1,64.1,57.8,73,58,43,28.44,28.40,13,8,27,0.04
2013-7-23,88.9,81.4,74.5,65.9,59.6,52.0,64,49,29,28.43,28.38,10,5,19,0.00
2013-7-24,91.2,87.3,83.5,56.8,55.9,55.2,38,35,31,28.44,28.41,3,1,9,0.00
2013-7-25,96.4,86.7,81.5,70.8,60.0,54.2,58,41,33,28.48,28.38,6,2,15,0.00
2013-7-26,97.0,90.0,79.9,71.4,63.7,55.5,63,43,29,28.42,28.33,8,2,16,0.00
2013-7-27,95.0,87.9,81.3,66.3,62.1,55.6,57,43,32,28.43,28.36,9,3,22,0.00
2013-7-28,93.6,85.6,79.7,64.6,62.3,58.6,54,46,37,28.52,28.44,9,2,16,0.00
2013-7-29,96.3,85.9,80.4,63.5,60.9,55.8,52,44,26,28.53,28.43,12,4,21,0.00
2013-7-30,97.7,88.5,83.5,73.5,65.0,59.0,70,47,36,28.44,28.26,6,2,10,0.00
2013-7-31,98.6,90.6,83.5,71.5,67.2,61.7,60,46,39,28.29,28.21,10,4,22,0.00